Time;durP1;ratioP1;P1;durP2;ratioP2;P2;SDS_P1;SDS_P2;PMS_P1;PMS_P2;Temp;Humidity;BMP_temperature;BMP_pressure;BME280_temperature;BME280_humidity;BME280_pressure;Samples;Min_cycle;Max_cycle;Signal;HPM_P1;HPM_P2
2022/01/19 00:01:18;;;;;;;17.98;10.80;;;16.90;53.50;;;;;;4988653;28;95171;-71
2022/01/19 00:03:43;;;;;;;16.02;10.13;;;16.90;53.50;;;;;;4990380;28;92950;-71
2022/01/19 00:06:10;;;;;;;18.48;11.30;;;16.90;53.50;;;;;;4990144;28;93279;-72
2022/01/19 00:08:36;;;;;;;18.98;10.82;;;16.80;53.40;;;;;;4990895;28;93030;-71
2022/01/19 00:11:02;;;;;;;17.02;10.77;;;16.80;53.40;;;;;;4990242;28;92577;-72
2022/01/19 00:13:27;;;;;;;17.92;10.98;;;16.80;53.40;;;;;;4990550;28;92571;-73
2022/01/19 00:15:53;;;;;;;17.30;10.77;;;16.80;53.40;;;;;;4989479;28;93295;-71
2022/01/19 00:18:21;;;;;;;19.02;11.55;;;16.80;53.40;;;;;;4990311;28;93000;-72
2022/01/19 00:20:49;;;;;;;17.80;10.68;;;16.80;53.40;;;;;;4989845;28;92550;-71
2022/01/19 00:23:16;;;;;;;18.52;11.43;;;16.70;53.40;;;;;;4989185;28;92955;-71
2022/01/19 00:25:42;;;;;;;17.70;11.43;;;16.70;53.30;;;;;;4988917;28;95531;-71
2022/01/19 00:28:08;;;;;;;18.87;10.87;;;16.70;53.30;;;;;;4988775;28;95105;-72
2022/01/19 00:30:34;;;;;;;18.58;11.27;;;16.70;53.30;;;;;;4989793;28;92593;-71
2022/01/19 00:33:00;;;;;;;18.38;10.98;;;16.70;53.30;;;;;;4989813;28;92939;-71
2022/01/19 00:35:25;;;;;;;17.55;11.45;;;16.70;53.40;;;;;;4991559;28;93946;-72
2022/01/19 00:37:52;;;;;;;18.35;11.25;;;16.60;53.30;;;;;;4994961;28;92915;-72
2022/01/19 00:40:20;;;;;;;18.48;11.15;;;16.70;53.30;;;;;;4995369;28;92453;-71
2022/01/19 00:42:46;;;;;;;18.77;11.85;;;16.70;53.30;;;;;;4990855;28;91917;-71
2022/01/19 00:45:13;;;;;;;18.73;11.38;;;16.60;53.30;;;;;;4990486;28;93043;-71
2022/01/19 00:47:40;;;;;;;16.38;11.18;;;16.60;53.20;;;;;;4990197;28;93004;-71
2022/01/19 00:50:08;;;;;;;17.90;11.18;;;16.60;53.20;;;;;;4989814;28;95405;-71
2022/01/19 00:52:37;;;;;;;18.45;11.63;;;16.60;53.20;;;;;;4990767;28;92532;-72
2022/01/19 00:55:07;;;;;;;18.13;11.70;;;16.60;53.20;;;;;;4989249;28;94245;-72
2022/01/19 00:57:33;;;;;;;18.73;11.15;;;16.60;53.20;;;;;;4989125;28;92807;-71
2022/01/19 00:59:58;;;;;;;17.27;11.68;;;16.60;53.20;;;;;;4989549;28;93084;-71
2022/01/19 01:02:24;;;;;;;18.40;11.10;;;16.60;53.00;;;;;;4988615;28;92813;-71
2022/01/19 01:04:50;;;;;;;17.40;11.68;;;16.60;53.00;;;;;;4988335;28;93989;-71
2022/01/19 01:07:15;;;;;;;17.55;10.90;;;16.60;52.90;;;;;;4989536;28;102374;-70
2022/01/19 01:09:41;;;;;;;17.95;11.05;;;16.70;52.90;;;;;;4989947;28;93823;-71
2022/01/19 01:12:12;;;;;;;17.77;11.35;;;16.70;52.90;;;;;;4990802;28;92638;-71
2022/01/19 01:20:11;;;;;;;16.50;10.73;;;16.70;52.60;;;;;;4989162;28;92452;-71
2022/01/19 01:22:38;;;;;;;17.30;10.27;;;16.70;52.60;;;;;;4989331;28;92797;-71
2022/01/19 01:25:05;;;;;;;16.10;10.10;;;16.80;52.60;;;;;;4988658;28;93120;-72
2022/01/19 01:27:30;;;;;;;16.05;10.50;;;16.70;52.50;;;;;;4989431;28;93384;-71
2022/01/19 01:29:56;;;;;;;15.48;9.98;;;16.80;52.40;;;;;;4989997;28;92519;-71
2022/01/19 01:32:22;;;;;;;15.73;10.50;;;16.80;52.40;;;;;;4990882;28;91705;-71
2022/01/19 01:34:52;;;;;;;16.80;10.48;;;16.80;52.30;;;;;;4989226;28;93072;-71
2022/01/19 01:37:18;;;;;;;16.00;10.20;;;16.80;52.10;;;;;;4989995;28;93412;-70
2022/01/19 01:39:45;;;;;;;15.57;10.38;;;16.80;52.20;;;;;;4988933;28;95373;-71
2022/01/19 01:42:12;;;;;;;17.05;10.65;;;16.80;52.10;;;;;;4990099;28;93023;-70
2022/01/19 01:44:39;;;;;;;15.55;11.05;;;16.80;52.10;;;;;;4991359;28;93123;-70
2022/01/19 01:47:06;;;;;;;15.68;10.57;;;16.80;52.10;;;;;;4992027;28;93232;-71
2022/01/19 01:55:00;;;;;;;14.40;9.50;;;16.80;52.00;;;;;;4993465;28;92682;-71
2022/01/19 01:57:26;;;;;;;13.38;9.90;;;16.80;51.90;;;;;;4993431;28;94821;-70
2022/01/19 01:59:51;;;;;;;13.45;9.70;;;16.80;51.90;;;;;;4993227;28;93400;-71
2022/01/19 02:02:18;;;;;;;14.65;10.32;;;16.80;51.90;;;;;;4994397;28;92945;-70
2022/01/19 02:04:44;;;;;;;12.52;9.55;;;16.80;51.90;;;;;;4991658;28;95451;-71
2022/01/19 02:09:53;;;;;;;13.45;9.38;;;16.80;51.80;;;;;;4991893;28;92919;-70
2022/01/19 02:23:46;;;;;;;12.65;9.05;;;16.80;51.80;;;;;;4998747;28;92166;-71
2022/01/19 02:26:21;;;;;;;12.95;9.50;;;16.70;51.80;;;;;;4994969;28;92526;-71
2022/01/19 02:29:15;;;;;;;13.90;9.32;;;16.80;51.80;;;;;;4993048;28;94642;-70
2022/01/19 02:40:17;;;;;;;11.80;9.10;;;16.70;51.70;;;;;;4992706;28;92904;-72
2022/01/19 02:43:06;;;;;;;10.43;8.43;;;16.70;51.60;;;;;;4993432;28;92593;-72
2022/01/19 02:51:04;;;;;;;10.82;8.23;;;16.70;51.60;;;;;;4993834;28;92987;-71
2022/01/19 02:53:33;;;;;;;10.57;8.75;;;16.60;51.50;;;;;;4991938;28;92784;-71
2022/01/19 02:56:06;;;;;;;11.25;9.07;;;16.60;51.50;;;;;;4992577;28;93030;-71
2022/01/19 02:58:36;;;;;;;9.60;8.43;;;16.60;51.50;;;;;;4992504;28;96801;-73
2022/01/19 03:09:16;;;;;;;10.05;8.82;;;16.60;51.50;;;;;;4993072;28;93182;-71
2022/01/19 03:11:42;;;;;;;10.57;8.85;;;16.60;51.50;;;;;;4992829;28;93123;-72
2022/01/19 03:14:08;;;;;;;9.90;8.40;;;16.60;51.50;;;;;;4992968;28;92575;-72
2022/01/19 03:16:34;;;;;;;10.05;8.02;;;16.60;51.40;;;;;;4994409;28;92299;-72
2022/01/19 03:19:00;;;;;;;10.05;8.68;;;16.60;51.40;;;;;;4993571;28;93101;-71
2022/01/19 03:21:26;;;;;;;9.40;7.72;;;16.60;51.40;;;;;;4975621;28;94311;-72
2022/01/19 03:23:51;;;;;;;8.93;8.00;;;16.60;51.40;;;;;;4992399;28;95081;-71
2022/01/19 03:26:19;;;;;;;8.88;7.85;;;16.60;51.40;;;;;;4993357;28;92591;-71
2022/01/19 03:28:44;;;;;;;8.75;7.85;;;16.60;51.30;;;;;;4993116;28;92569;-71
2022/01/19 03:31:10;;;;;;;8.82;7.78;;;16.60;51.30;;;;;;4992741;28;93873;-72
2022/01/19 03:33:35;;;;;;;10.52;8.07;;;16.60;51.30;;;;;;4993131;28;93060;-71
2022/01/19 03:36:01;;;;;;;8.32;7.43;;;16.60;51.30;;;;;;4993180;28;92537;-71
2022/01/19 03:38:29;;;;;;;8.18;7.30;;;16.60;51.30;;;;;;4993076;28;93016;-72
2022/01/19 03:40:55;;;;;;;8.75;7.70;;;16.60;51.20;;;;;;4993295;28;92521;-71
2022/01/19 03:43:20;;;;;;;8.75;7.65;;;16.50;51.20;;;;;;4991604;28;92912;-71
2022/01/19 03:45:52;;;;;;;8.60;7.15;;;16.50;51.20;;;;;;4993211;28;92593;-71
2022/01/19 03:48:42;;;;;;;8.20;7.00;;;16.50;51.10;;;;;;4991584;28;97347;-73
2022/01/19 03:51:07;;;;;;;8.00;6.95;;;16.50;51.10;;;;;;4992557;28;95161;-71
2022/01/19 03:53:33;;;;;;;8.05;7.25;;;16.50;51.10;;;;;;4993063;28;92568;-72
2022/01/19 03:55:59;;;;;;;7.85;6.85;;;16.50;51.10;;;;;;4992452;28;93022;-70
2022/01/19 03:58:25;;;;;;;8.02;7.22;;;16.50;51.00;;;;;;4991841;28;94100;-71
2022/01/19 05:43:32;;;;;;;4.53;3.40;;;18.50;46.60;;;;;;5016989;22;96438;-63
2022/01/19 05:45:57;;;;;;;3.92;3.33;;;18.50;46.90;;;;;;5012841;28;92532;-63
2022/01/19 05:48:24;;;;;;;4.40;3.15;;;18.40;46.80;;;;;;5012272;28;94313;-63
2022/01/19 05:50:50;;;;;;;4.55;3.60;;;18.30;46.80;;;;;;5013176;28;93830;-63
2022/01/19 05:53:16;;;;;;;4.75;3.45;;;18.40;46.90;;;;;;5012234;28;92869;-63
2022/01/19 05:55:43;;;;;;;3.70;3.40;;;18.30;47.00;;;;;;5013246;28;91874;-63
2022/01/19 05:58:08;;;;;;;4.07;3.67;;;18.20;47.10;;;;;;5011873;28;95714;-63
2022/01/19 06:00:34;;;;;;;3.67;3.30;;;18.10;47.10;;;;;;5012663;28;92753;-64
2022/01/19 06:03:00;;;;;;;4.32;3.83;;;18.10;47.30;;;;;;5011545;28;94930;-63
2022/01/19 06:05:26;;;;;;;4.18;3.60;;;18.00;47.30;;;;;;5013436;28;92950;-63
2022/01/19 06:08:08;;;;;;;3.78;3.35;;;18.00;47.50;;;;;;5012133;28;94287;-63
2022/01/19 06:10:43;;;;;;;5.13;3.67;;;17.90;47.60;;;;;;5012609;28;94040;-63
2022/01/19 06:13:11;;;;;;;3.80;3.40;;;17.90;47.70;;;;;;5012219;28;92573;-64
2022/01/19 06:15:36;;;;;;;5.03;3.72;;;17.80;47.70;;;;;;5012027;28;92583;-64
2022/01/19 06:18:03;;;;;;;4.45;3.80;;;17.70;47.90;;;;;;5010833;28;94490;-64
2022/01/19 06:20:29;;;;;;;5.13;3.88;;;17.70;47.90;;;;;;5013370;28;92754;-64
2022/01/19 06:22:55;;;;;;;5.72;4.10;;;17.70;48.00;;;;;;5011425;28;92834;-64
2022/01/19 06:25:21;;;;;;;4.45;3.85;;;17.60;48.10;;;;;;5012866;28;93152;-64
2022/01/19 06:27:47;;;;;;;4.80;4.18;;;17.60;49.20;;;;;;5010775;28;95448;-64
2022/01/19 06:30:13;;;;;;;4.40;4.00;;;17.50;48.30;;;;;;5011338;28;96513;-63
2022/01/19 06:32:41;;;;;;;4.55;3.78;;;17.50;48.30;;;;;;5011739;28;92600;-66
2022/01/19 06:35:08;;;;;;;4.50;4.07;;;17.40;48.40;;;;;;5012276;28;92599;-64
2022/01/19 06:37:35;;;;;;;5.80;4.43;;;17.40;48.50;;;;;;5012247;28;92968;-65
2022/01/19 06:40:03;;;;;;;4.53;4.13;;;17.40;48.70;;;;;;5011419;28;93980;-66
2022/01/19 06:42:29;;;;;;;5.35;4.20;;;17.30;48.70;;;;;;5017548;28;92754;-65
2022/01/19 06:44:55;;;;;;;4.22;3.83;;;17.20;48.90;;;;;;5030060;28;91911;-65
2022/01/19 06:47:21;;;;;;;5.20;4.13;;;17.20;48.90;;;;;;5031766;28;94543;-67
2022/01/19 06:49:47;;;;;;;5.18;4.10;;;17.20;48.90;;;;;;5030567;28;93982;-64
2022/01/19 06:52:13;;;;;;;5.88;5.13;;;17.20;49.00;;;;;;5030356;28;95478;-65
2022/01/19 06:54:38;;;;;;;5.43;4.93;;;17.10;49.00;;;;;;5032197;28;93037;-65
2022/01/19 06:57:04;;;;;;;5.63;4.72;;;17.10;49.00;;;;;;5031629;28;93980;-65
2022/01/19 06:59:30;;;;;;;6.25;4.88;;;17.00;49.20;;;;;;5031077;28;93139;-65
2022/01/19 07:01:56;;;;;;;5.38;4.53;;;17.00;49.20;;;;;;5031639;28;93214;-65
2022/01/19 07:04:23;;;;;;;5.72;4.65;;;17.00;49.30;;;;;;5031387;28;93107;-65
2022/01/19 07:06:50;;;;;;;6.70;5.28;;;16.90;49.30;;;;;;5030788;28;93095;-67
2022/01/19 07:09:17;;;;;;;7.32;5.40;;;16.90;49.30;;;;;;5031829;28;94040;-64
2022/01/19 07:11:43;;;;;;;5.97;5.38;;;16.90;49.40;;;;;;5031315;28;92920;-66
2022/01/19 07:14:12;;;;;;;6.30;5.40;;;16.90;49.40;;;;;;5032378;28;92518;-64
2022/01/19 07:16:38;;;;;;;5.95;5.35;;;16.90;49.30;;;;;;5029812;28;96361;-66
2022/01/19 07:19:04;;;;;;;6.72;5.55;;;16.80;49.30;;;;;;5031414;28;94993;-65
2022/01/19 07:21:30;;;;;;;7.88;6.20;;;16.80;49.30;;;;;;5031361;28;93044;-65
2022/01/19 07:23:55;;;;;;;6.13;5.53;;;16.80;49.30;;;;;;5031909;28;92940;-65
2022/01/19 07:26:21;;;;;;;9.35;6.40;;;16.80;49.20;;;;;;5031984;28;93227;-64
2022/01/19 07:28:47;;;;;;;7.20;6.20;;;16.80;49.10;;;;;;5030873;28;93915;-66
2022/01/19 07:31:12;;;;;;;10.93;7.13;;;16.80;49.30;;;;;;5033317;28;92621;-65
2022/01/19 07:33:38;;;;;;;9.80;6.25;;;16.80;49.40;;;;;;5032534;28;91827;-64
2022/01/19 07:36:04;;;;;;;12.15;6.95;;;16.80;49.40;;;;;;5031880;28;94225;-65
2022/01/19 07:38:30;;;;;;;9.90;6.88;;;16.80;49.70;;;;;;5030310;28;93566;-66
2022/01/19 07:40:55;;;;;;;10.00;7.03;;;16.80;49.70;;;;;;5029899;27;94873;-65
2022/01/19 07:43:21;;;;;;;12.32;7.93;;;16.80;49.70;;;;;;5030324;28;92745;-63
2022/01/19 07:45:47;;;;;;;13.80;8.98;;;16.80;49.70;;;;;;5029813;28;94092;-63
2022/01/19 07:48:13;;;;;;;12.57;8.90;;;16.80;49.50;;;;;;5031009;28;93818;-63
2022/01/19 07:50:39;;;;;;;13.52;9.60;;;16.80;49.30;;;;;;5030285;28;92757;-65
2022/01/19 07:53:05;;;;;;;12.57;9.90;;;16.80;49.20;;;;;;5030995;28;92553;-63
2022/01/19 07:55:31;;;;;;;14.10;9.57;;;16.80;49.10;;;;;;5030773;28;93118;-64
2022/01/19 07:57:58;;;;;;;12.85;10.02;;;16.90;49.00;;;;;;5030105;28;95666;-64
2022/01/19 08:00:24;;;;;;;13.80;10.38;;;16.90;48.80;;;;;;5030477;28;92571;-63
2022/01/19 08:02:50;;;;;;;13.90;10.13;;;16.90;48.70;;;;;;5030247;28;92990;-63
2022/01/19 08:05:16;;;;;;;14.93;11.05;;;16.90;48.50;;;;;;5029188;28;95471;-65
2022/01/19 08:07:42;;;;;;;13.80;10.40;;;17.00;48.40;;;;;;5030211;28;95261;-64
2022/01/19 08:10:09;;;;;;;15.13;11.13;;;17.00;48.20;;;;;;5030000;28;92810;-63
2022/01/19 08:12:35;;;;;;;15.27;10.70;;;17.00;48.10;;;;;;5030651;28;92937;-63
2022/01/19 08:15:02;;;;;;;15.82;10.98;;;17.10;48.00;;;;;;5029840;28;93159;-64
2022/01/19 08:17:28;;;;;;;15.35;10.52;;;17.10;47.80;;;;;;5029022;28;94067;-63
2022/01/19 08:19:55;;;;;;;15.70;10.70;;;17.20;47.80;;;;;;5031261;28;93055;-63
2022/01/19 08:22:21;;;;;;;14.27;10.43;;;17.20;47.60;;;;;;5030756;28;92309;-63
2022/01/19 08:24:47;;;;;;;14.80;10.85;;;17.20;47.50;;;;;;5029704;28;94508;-64
2022/01/19 08:27:13;;;;;;;13.18;10.63;;;17.30;47.40;;;;;;5029414;28;94003;-65
2022/01/19 08:29:39;;;;;;;15.15;11.30;;;17.30;47.30;;;;;;5028393;28;95050;-64
2022/01/19 08:32:06;;;;;;;14.52;11.02;;;17.30;47.20;;;;;;5029952;28;92731;-64
2022/01/19 08:34:32;;;;;;;16.65;11.40;;;17.40;47.10;;;;;;5029345;28;94367;-64
2022/01/19 08:36:59;;;;;;;16.27;11.60;;;17.40;47.10;;;;;;5029629;28;93968;-66
2022/01/19 08:39:25;;;;;;;15.77;10.68;;;17.40;46.90;;;;;;5030509;28;93038;-64
2022/01/19 08:41:52;;;;;;;16.67;11.60;;;17.50;46.80;;;;;;5029602;28;92491;-64
2022/01/19 08:44:18;;;;;;;17.00;11.90;;;17.50;46.70;;;;;;5029287;28;94673;-64
2022/01/19 08:46:44;;;;;;;15.10;11.13;;;17.50;46.70;;;;;;5029693;28;93931;-65
2022/01/19 08:49:10;;;;;;;15.13;11.40;;;17.50;46.60;;;;;;5028600;28;93000;-64
2022/01/19 08:51:36;;;;;;;14.25;11.05;;;17.50;46.60;;;;;;5030038;28;92477;-64
2022/01/19 08:54:02;;;;;;;17.33;11.75;;;17.50;46.60;;;;;;5027104;28;96416;-66
2022/01/19 08:56:28;;;;;;;16.38;10.90;;;17.50;46.50;;;;;;5029169;28;95267;-64
2022/01/19 08:58:54;;;;;;;16.20;11.25;;;17.50;46.40;;;;;;5029858;28;92402;-65
2022/01/19 09:01:19;;;;;;;15.52;11.23;;;17.50;46.30;;;;;;5029664;28;92899;-64
2022/01/19 09:03:46;;;;;;;16.15;11.77;;;17.60;46.40;;;;;;5029755;28;93664;-64
2022/01/19 09:06:12;;;;;;;16.60;11.70;;;17.60;46.30;;;;;;5029240;28;93254;-64
2022/01/19 09:08:38;;;;;;;18.00;11.95;;;17.70;46.20;;;;;;5029246;28;92986;-64
2022/01/19 09:11:05;;;;;;;17.23;11.35;;;17.70;46.20;;;;;;5030373;28;91784;-64
2022/01/19 09:13:32;;;;;;;19.30;11.38;;;17.70;46.20;;;;;;5028281;28;95418;-65
2022/01/19 09:15:57;;;;;;;18.50;11.50;;;17.70;46.20;;;;;;5028683;28;92965;-66
2022/01/19 09:18:23;;;;;;;15.93;11.02;;;17.70;46.20;;;;;;5029217;28;95385;-64
2022/01/19 09:20:49;;;;;;;17.10;11.75;;;17.70;46.20;;;;;;5029211;28;92753;-64
2022/01/19 09:23:14;;;;;;;15.88;11.68;;;17.70;46.20;;;;;;5029282;28;93060;-64
2022/01/19 09:25:40;;;;;;;17.17;11.70;;;17.70;46.10;;;;;;5029393;28;93808;-64
2022/01/19 09:28:07;;;;;;;17.73;12.23;;;17.70;46.00;;;;;;5028923;28;92765;-64
2022/01/19 09:30:33;;;;;;;15.93;11.63;;;17.80;46.60;;;;;;5029464;28;92885;-64
2022/01/19 09:33:07;;;;;;;18.05;11.63;;;17.80;46.00;;;;;;5029545;28;93184;-64
2022/01/19 09:35:51;;;;;;;16.40;11.13;;;17.80;45.90;;;;;;5028857;28;94649;-64
2022/01/19 09:38:19;;;;;;;16.90;11.98;;;17.90;45.80;;;;;;5029237;28;92499;-65
2022/01/19 09:40:45;;;;;;;17.48;11.63;;;17.90;45.60;;;;;;5029339;28;92591;-63
2022/01/19 09:43:10;;;;;;;16.17;11.57;;;18.00;45.70;;;;;;5026982;28;96696;-64
2022/01/19 09:45:36;;;;;;;16.42;11.52;;;18.00;45.60;;;;;;5028216;28;95183;-64
2022/01/19 09:48:02;;;;;;;15.98;12.30;;;18.00;45.40;;;;;;5028805;28;92598;-64
2022/01/19 09:50:28;;;;;;;16.70;12.18;;;18.10;45.30;;;;;;5028373;28;92970;-64
2022/01/19 09:52:54;;;;;;;16.80;11.57;;;18.10;45.20;;;;;;5028144;28;93994;-64
2022/01/19 09:55:21;;;;;;;16.50;11.70;;;18.20;45.10;;;;;;5029263;28;93265;-64
2022/01/19 09:57:46;;;;;;;16.10;12.35;;;18.20;45.10;;;;;;5028096;28;92782;-70
2022/01/19 10:00:13;;;;;;;16.02;11.65;;;18.20;45.00;;;;;;5029225;28;92127;-64
2022/01/19 10:02:38;;;;;;;20.42;12.82;;;18.30;44.90;;;;;;5029086;28;94508;-63
2022/01/19 10:05:08;;;;;;;15.05;11.88;;;18.30;44.80;;;;;;5029698;27;93986;-64
2022/01/19 10:07:34;;;;;;;17.80;12.88;;;18.30;44.70;;;;;;5031154;28;95196;-64
2022/01/19 10:10:03;;;;;;;16.42;13.23;;;18.30;44.80;;;;;;5032532;28;92865;-65
2022/01/19 10:18:17;;;;;;;18.55;13.25;;;18.20;45.00;;;;;;5031676;28;92787;-67
2022/01/19 10:20:44;;;;;;;18.40;13.02;;;18.20;45.10;;;;;;5031921;28;92952;-64
2022/01/19 10:23:48;;;;;;;16.98;13.00;;;18.20;45.00;;;;;;5032356;28;93780;-63
2022/01/19 10:26:22;;;;;;;18.17;13.07;;;18.20;45.00;;;;;;5029886;28;93984;-64
2022/01/19 10:29:06;;;;;;;20.55;13.90;;;18.20;45.10;;;;;;5030918;28;93024;-63
2022/01/19 10:31:34;;;;;;;19.35;13.73;;;18.20;45.00;;;;;;5031932;28;92818;-65
2022/01/19 10:34:19;;;;;;;18.10;13.70;;;18.10;45.10;;;;;;5029929;28;96801;-63
2022/01/19 10:36:50;;;;;;;18.73;14.43;;;18.10;45.00;;;;;;5031144;28;98718;-64
2022/01/19 10:39:18;;;;;;;19.42;13.52;;;18.00;45.10;;;;;;5030558;28;92818;-63
2022/01/19 10:42:05;;;;;;;19.95;14.20;;;18.00;45.20;;;;;;5032286;28;92940;-64
2022/01/19 10:44:36;;;;;;;20.38;14.40;;;18.00;45.20;;;;;;5030056;28;94454;-63
2022/01/19 10:47:03;;;;;;;20.05;14.68;;;18.00;45.30;;;;;;5031474;28;93767;-63
2022/01/19 10:49:52;;;;;;;20.77;14.80;;;18.00;45.30;;;;;;5030697;28;92966;-64
2022/01/19 10:52:31;;;;;;;21.92;15.90;;;18.00;45.30;;;;;;5031545;28;92214;-63
2022/01/19 10:54:58;;;;;;;18.48;14.68;;;17.90;45.40;;;;;;5031369;28;94042;-66
2022/01/19 10:57:26;;;;;;;20.42;15.52;;;17.90;45.50;;;;;;5030754;28;92926;-64
2022/01/19 10:59:53;;;;;;;21.63;15.52;;;17.80;45.50;;;;;;5030423;28;95358;-63
2022/01/19 11:02:19;;;;;;;21.15;15.25;;;17.80;45.60;;;;;;5031641;28;92640;-63
2022/01/19 11:04:45;;;;;;;21.20;16.40;;;17.70;46.60;;;;;;5031047;28;95190;-63
2022/01/19 11:07:19;;;;;;;20.83;15.85;;;17.70;45.70;;;;;;5030133;28;93229;-63
2022/01/19 11:09:46;;;;;;;21.85;16.50;;;17.60;45.70;;;;;;5030579;28;92829;-64
2022/01/19 11:12:19;;;;;;;22.50;17.58;;;17.60;45.90;;;;;;5031519;28;92588;-63
2022/01/19 11:14:45;;;;;;;23.80;16.63;;;17.60;46.00;;;;;;5030786;28;94406;-64
2022/01/19 11:17:11;;;;;;;22.20;17.55;;;17.50;46.00;;;;;;5031167;28;94802;-68
2022/01/19 11:19:43;;;;;;;20.38;16.30;;;17.50;46.10;;;;;;5031137;28;93037;-63
2022/01/19 11:22:40;;;;;;;23.85;17.63;;;17.40;46.30;;;;;;5031349;28;92746;-64
2022/01/19 11:25:30;;;;;;;23.92;17.55;;;17.40;46.30;;;;;;5029521;28;97153;-63
2022/01/19 11:27:56;;;;;;;25.48;18.42;;;17.30;46.40;;;;;;5030576;28;96438;-64
2022/01/19 11:30:31;;;;;;;22.83;18.00;;;17.30;46.70;;;;;;5030378;28;93244;-64
2022/01/19 11:33:26;;;;;;;26.48;19.17;;;17.30;46.90;;;;;;5030054;28;94088;-63
2022/01/19 11:35:57;;;;;;;23.73;18.08;;;17.20;46.80;;;;;;5029910;28;94787;-63
2022/01/19 11:38:31;;;;;;;26.42;19.45;;;17.20;47.20;;;;;;5029893;28;94002;-63
2022/01/19 11:41:02;;;;;;;25.27;20.23;;;17.10;47.20;;;;;;5030216;28;93081;-63
2022/01/19 11:43:31;;;;;;;28.50;20.77;;;17.10;47.40;;;;;;5011909;28;92357;-64
2022/01/19 11:45:58;;;;;;;27.77;20.90;;;17.00;47.50;;;;;;5029803;28;93174;-64
2022/01/19 11:48:27;;;;;;;29.50;21.15;;;17.00;47.40;;;;;;5030022;28;94579;-64
2022/01/19 11:50:54;;;;;;;27.17;20.15;;;17.00;47.50;;;;;;5028304;28;94859;-64
2022/01/19 11:53:21;;;;;;;27.88;20.83;;;16.90;47.40;;;;;;5030901;28;92739;-63
2022/01/19 11:56:13;;;;;;;28.70;21.38;;;16.90;47.40;;;;;;5029486;28;94454;-64
2022/01/19 11:58:38;;;;;;;26.23;20.48;;;16.90;47.50;;;;;;5025501;28;94123;-63
2022/01/19 12:01:21;;;;;;;28.42;20.88;;;16.80;47.60;;;;;;5030618;28;92606;-64
2022/01/19 12:03:46;;;;;;;29.00;22.10;;;16.80;47.60;;;;;;5030982;28;93069;-63
2022/01/19 12:06:30;;;;;;;28.60;20.67;;;16.80;47.80;;;;;;5030210;28;92918;-64
2022/01/19 12:08:56;;;;;;;24.48;19.17;;;16.80;47.80;;;;;;5031116;28;93997;-63
2022/01/19 12:11:23;;;;;;;26.38;21.02;;;16.70;47.80;;;;;;5029225;28;92959;-63
2022/01/19 12:14:21;;;;;;;26.42;20.17;;;16.70;47.90;;;;;;5029919;28;92524;-63
2022/01/19 12:17:00;;;;;;;25.33;19.25;;;16.70;47.80;;;;;;5028441;28;96594;-65
2022/01/19 12:19:29;;;;;;;25.85;19.35;;;16.80;47.90;;;;;;5029752;28;97277;-63
2022/01/19 12:22:08;;;;;;;25.20;19.85;;;16.70;47.80;;;;;;5029185;28;92928;-63
2022/01/19 12:24:44;;;;;;;24.65;19.20;;;16.70;47.70;;;;;;5029833;28;92512;-63
2022/01/19 12:27:15;;;;;;;25.38;20.20;;;16.70;47.80;;;;;;5029365;28;94682;-63
2022/01/19 12:29:43;;;;;;;26.05;18.83;;;16.70;47.80;;;;;;5029319;28;94033;-63
2022/01/19 12:32:20;;;;;;;27.05;19.33;;;16.70;47.80;;;;;;5029769;28;92766;-64
2022/01/19 12:35:20;;;;;;;24.70;17.77;;;16.80;47.70;;;;;;5030218;28;92308;-66
2022/01/19 12:37:54;;;;;;;25.23;18.42;;;16.80;47.60;;;;;;5029412;28;94143;-63
2022/01/19 12:40:29;;;;;;;24.20;18.17;;;16.80;47.50;;;;;;5029074;28;94357;-65
2022/01/19 12:43:01;;;;;;;25.60;18.85;;;16.80;47.60;;;;;;5027655;28;95251;-63
2022/01/19 12:45:28;;;;;;;25.00;19.55;;;16.80;47.60;;;;;;5029921;28;93264;-66
2022/01/19 12:47:55;;;;;;;23.23;18.17;;;16.80;48.50;;;;;;5029497;28;94132;-64
2022/01/19 12:50:28;;;;;;;23.45;18.02;;;16.80;47.40;;;;;;5029510;28;93976;-62
2022/01/19 12:52:59;;;;;;;22.45;18.00;;;16.80;47.40;;;;;;5030321;28;92519;-64
2022/01/19 12:55:37;;;;;;;25.08;18.00;;;16.80;47.40;;;;;;5029821;28;93914;-63
2022/01/19 12:58:28;;;;;;;22.95;18.17;;;16.90;47.40;;;;;;5029516;28;94135;-64
2022/01/19 13:00:58;;;;;;;22.83;17.42;;;16.90;47.30;;;;;;5030207;28;94363;-63
2022/01/19 13:03:45;;;;;;;24.13;17.60;;;16.90;47.30;;;;;;5029843;28;92787;-63
2022/01/19 13:06:15;;;;;;;22.67;17.38;;;16.90;48.40;;;;;;5030548;28;92953;-65
2022/01/19 13:08:51;;;;;;;21.70;16.95;;;16.90;47.40;;;;;;5029183;28;96654;-64
2022/01/19 13:11:25;;;;;;;24.17;17.60;;;16.90;47.40;;;;;;5029644;28;97027;-63
2022/01/19 13:14:04;;;;;;;20.17;16.10;;;16.90;47.30;;;;;;5029457;28;92607;-64
2022/01/19 13:16:47;;;;;;;20.80;16.65;;;16.90;47.40;;;;;;5029438;28;92559;-65
2022/01/19 13:19:17;;;;;;;21.58;17.40;;;16.90;47.40;;;;;;5028521;28;94253;-63
2022/01/19 13:21:47;;;;;;;23.77;17.05;;;16.90;47.40;;;;;;5029305;28;94183;-63
2022/01/19 13:24:26;;;;;;;21.33;16.35;;;16.80;47.40;;;;;;5029001;28;92827;-63
2022/01/19 13:27:03;;;;;;;22.88;16.90;;;16.80;47.40;;;;;;5029790;28;92293;-63
2022/01/19 13:29:39;;;;;;;21.98;17.10;;;16.80;47.30;;;;;;5028344;28;95326;-64
2022/01/19 13:32:10;;;;;;;20.92;16.33;;;16.80;47.60;;;;;;5028223;28;94450;-64
2022/01/19 13:34:59;;;;;;;20.38;15.73;;;16.80;47.40;;;;;;5027228;28;95689;-64
2022/01/19 13:37:32;;;;;;;20.95;16.00;;;16.80;47.40;;;;;;5028839;28;94482;-63
2022/01/19 13:40:12;;;;;;;19.13;15.45;;;16.80;47.80;;;;;;5029526;28;94278;-65
2022/01/19 13:42:41;;;;;;;21.20;15.20;;;16.90;47.90;;;;;;5031664;28;95025;-64
2022/01/19 13:45:11;;;;;;;22.00;16.38;;;16.80;48.20;;;;;;5031413;28;92907;-63
2022/01/19 13:48:19;;;;;;;22.08;15.38;;;16.90;48.30;;;;;;5031951;28;92610;-66
2022/01/19 13:50:52;;;;;;;21.95;14.70;;;16.90;48.60;;;;;;5031471;28;94868;-65
2022/01/19 13:53:27;;;;;;;18.25;13.77;;;17.00;48.80;;;;;;5030638;28;94059;-65
2022/01/19 13:55:54;;;;;;;17.02;13.38;;;17.10;48.70;;;;;;5031294;28;93492;-65
2022/01/19 13:58:20;;;;;;;17.00;12.80;;;17.20;48.60;;;;;;5032678;28;92827;-64
2022/01/19 14:00:57;;;;;;;17.33;13.25;;;17.30;49.40;;;;;;5030749;28;95440;-65
2022/01/19 14:03:25;;;;;;;15.05;11.80;;;17.40;48.30;;;;;;5032181;28;95619;-64
2022/01/19 14:09:36;;;;;;;13.73;11.00;;;17.60;48.00;;;;;;5032287;28;92469;-65
2022/01/19 14:12:13;;;;;;;15.90;11.38;;;17.80;47.70;;;;;;5031996;28;94558;-65
2022/01/19 14:14:51;;;;;;;12.40;10.40;;;17.90;47.50;;;;;;5032514;28;95083;-64
2022/01/19 14:17:41;;;;;;;16.27;10.98;;;17.90;47.40;;;;;;5031892;28;92998;-65
2022/01/19 14:20:22;;;;;;;13.55;10.40;;;18.00;47.40;;;;;;5032051;28;92334;-64
2022/01/19 14:22:48;;;;;;;13.82;10.20;;;18.00;47.40;;;;;;5031792;28;94067;-64
2022/01/19 14:25:18;;;;;;;13.75;9.68;;;18.00;47.40;;;;;;5031251;28;92869;-66
2022/01/19 14:27:52;;;;;;;15.23;10.40;;;18.00;47.30;;;;;;5031347;28;94912;-68
2022/01/19 14:30:20;;;;;;;14.32;10.35;;;18.00;47.40;;;;;;5031683;28;92731;-64
2022/01/19 14:32:56;;;;;;;11.77;9.57;;;18.00;47.40;;;;;;5031824;28;94626;-64
2022/01/19 14:35:36;;;;;;;12.27;9.57;;;18.00;47.40;;;;;;5032874;28;93973;-64
2022/01/19 14:38:31;;;;;;;11.88;9.93;;;17.90;47.40;;;;;;5032652;28;92906;-64
2022/01/19 14:41:17;;;;;;;11.48;8.93;;;17.90;47.50;;;;;;5032343;28;92522;-64
2022/01/19 14:44:01;;;;;;;11.30;9.52;;;17.90;47.60;;;;;;5030974;28;94771;-67
2022/01/19 14:47:06;;;;;;;11.73;9.88;;;17.90;47.70;;;;;;5032372;28;94755;-64
2022/01/19 14:49:35;;;;;;;10.70;8.55;;;17.90;47.80;;;;;;5032357;28;92857;-65
2022/01/19 14:52:02;;;;;;;11.27;8.80;;;17.80;47.80;;;;;;5032242;28;92867;-65
2022/01/19 14:54:27;;;;;;;11.45;8.55;;;17.80;47.80;;;;;;5030264;28;96062;-65
2022/01/19 14:56:53;;;;;;;10.93;8.77;;;17.80;47.80;;;;;;5030030;28;105995;-68
2022/01/19 14:59:21;;;;;;;9.50;8.40;;;17.80;47.80;;;;;;5032415;28;93576;-65
2022/01/19 15:01:51;;;;;;;12.52;9.35;;;17.80;47.80;;;;;;5030943;28;92966;-65
2022/01/19 15:04:19;;;;;;;10.80;8.35;;;17.90;47.90;;;;;;5032177;28;95180;-66
2022/01/19 15:06:45;;;;;;;13.55;8.80;;;17.80;47.80;;;;;;5031905;28;94216;-65
2022/01/19 15:09:12;;;;;;;11.30;8.10;;;17.80;47.80;;;;;;5032177;28;93458;-66
2022/01/19 15:11:39;;;;;;;10.57;8.75;;;17.90;47.90;;;;;;5032276;28;91978;-65
2022/01/19 15:14:06;;;;;;;9.75;7.80;;;17.80;48.00;;;;;;5031455;28;94371;-65
2022/01/19 15:16:31;;;;;;;11.82;8.73;;;17.90;48.10;;;;;;5029975;28;94083;-65
2022/01/19 15:18:57;;;;;;;11.07;8.25;;;17.90;48.20;;;;;;5029689;28;94951;-65
2022/01/19 15:21:23;;;;;;;10.88;8.70;;;17.90;48.30;;;;;;5030219;28;92631;-66
2022/01/19 15:23:49;;;;;;;10.60;7.97;;;17.90;48.40;;;;;;5031092;28;93921;-66
2022/01/19 15:26:18;;;;;;;11.45;7.80;;;17.90;48.40;;;;;;5030372;28;94451;-64